Columbus, Ohio
Traffic Map
Current Weather Conditions
Columbus, Ohio
Broken Clouds
Broken Clouds
76°
Feels Like: 76°
Wind Chill: 76° Ceiling: 14000
Heat Index: 76° Visibility: 10mi
Dew Point: 73° Wind: 6mph
Humidity: 91% Direction: 320° (NW)
Pressure: 29.96in Gusts: 0mph
Raw Report DataKCMH 300551Z 32005KT 10SM SCT030 BKN140 BKN250 24/23 A2996 RMK AO2 SLP136 60002 T02440228 10244 20233 50000 $
Traffic Incident Summary
Active as of:
Severity:
Category:
InformationThere was an issue retrieving the traffic information for this location. Please try a different location or try again shortly.
Advertisements
Track Severe Weather on mobile